Airfield :
LOGIN :

Register | Disclaimer

   EN    FR    IT 

 










Legend :    VFR   Marginal VFR   IFR   Intensive IFR   Very Intensive IFR
Visi :
Ceiling :
>= 8 km
>= 3000ft
5 to 8 km
1000 to 3000 ft
1500m to 5 km
500 to 1000 ft
800 to 1500m
200 to 500 ft
< 800m
< 200 ft
Symbols :   Thunderstorms  Fog  Heavy snow  Heavy precipitations  Wind > 20 kt
SIGMETs :     Misc.  Thunderstorms  Icing  Turbulence  Mountain Waves  Volcanic Ashes






- Airport Elevation : -13 ft
- IATA code : LEY


EHLE - Lelystad

CURRENT METAR :
  • 260025Z AUTO 04004KT 1700 FG NSC 16/16 Q1008

EXPIRED METARs :
  • 252355Z AUTO 07003KT 8000 BR NSC 17/17 Q1008
  • 252325Z AUTO 04002KT 6000 NSC 17/17 Q1009
  • 252255Z AUTO 00000KT 9999 NSC 18/17 Q1009
  • 252225Z AUTO 08003KT 9999 NSC 18/17 Q1009
  • 252155Z AUTO VRB02KT 9999 NSC 18/17 Q1009

TAF TAF EHLE
Valid from the 26 at 00:00 until the 27 at 06:00 UTC


252313Z 2600/2706 VRB03KT CAVOK
BECMG 2600/2602 4000 BR NSC
PROB40 2602/2606 1500 BCFG SCT006
PROB30
TEMPO 2602/2605 0600 FG BKN002
BECMG 2605/2607 18005KT 9999 NSW SCT020
TEMPO 2606/2620 3000 SHRA TSRA SCT018CB
BECMG 2609/2612 27008KT
TEMPO 2619/2623 SCT008 BKN012
BECMG 2621/2624 20006KT



MET'MAP, your aeronautical weather chart ! - Copyright ORBIFLY December 2007 - Disclaimer

ORBIFLY MET'MAP TEAM :

Programming & Development : Alexandra Zaïnal
Concept & original design : Baudouin d'Aumeries
Assistance for programming : Marc-Olivier Méhu
Technical & hardware support : Manuel Goepfert

Contact : metmap@orbifly.com




SOURCES & CREDITS :

   NOAA